sensor_id;sensor_type;location;lat;lon;timestamp;P1;durP1;ratioP1;P2;durP2;ratioP2
21769;SDS011;11046;49.558;8.674;2022-07-06T05:32:32;5.95;;;3.40;;
21769;SDS011;11046;49.558;8.674;2022-07-06T05:35:34;4.60;;;3.35;;
21769;SDS011;11046;49.558;8.674;2022-07-06T05:38:36;6.25;;;3.60;;
21769;SDS011;11046;49.558;8.674;2022-07-06T05:41:37;5.50;;;3.60;;
21769;SDS011;11046;49.558;8.674;2022-07-06T05:44:39;4.40;;;3.30;;
21769;SDS011;11046;49.558;8.674;2022-07-06T05:47:40;9.82;;;3.40;;
21769;SDS011;11046;49.558;8.674;2022-07-06T05:50:59;6.15;;;3.30;;
21769;SDS011;11046;49.558;8.674;2022-07-06T05:54:01;4.65;;;3.55;;
21769;SDS011;11046;49.558;8.674;2022-07-06T05:57:02;7.60;;;3.65;;
21769;SDS011;11046;49.558;8.674;2022-07-06T06:00:04;5.65;;;3.50;;
21769;SDS011;11046;49.558;8.674;2022-07-06T06:03:16;8.00;;;3.53;;
21769;SDS011;11046;49.558;8.674;2022-07-06T06:06:17;6.05;;;3.58;;
21769;SDS011;11046;49.558;8.674;2022-07-06T06:09:18;6.65;;;3.75;;
21769;SDS011;11046;49.558;8.674;2022-07-06T06:12:19;10.52;;;3.92;;
21769;SDS011;11046;49.558;8.674;2022-07-06T06:15:20;6.25;;;4.00;;
21769;SDS011;11046;49.558;8.674;2022-07-06T06:18:21;8.43;;;3.58;;
21769;SDS011;11046;49.558;8.674;2022-07-06T06:21:22;8.52;;;3.63;;
21769;SDS011;11046;49.558;8.674;2022-07-06T06:24:22;7.55;;;3.50;;
21769;SDS011;11046;49.558;8.674;2022-07-06T06:27:24;7.07;;;3.65;;
21769;SDS011;11046;49.558;8.674;2022-07-06T06:30:25;6.22;;;3.05;;
21769;SDS011;11046;49.558;8.674;2022-07-06T06:33:26;5.85;;;2.92;;
21769;SDS011;11046;49.558;8.674;2022-07-06T06:36:27;9.55;;;3.15;;
21769;SDS011;11046;49.558;8.674;2022-07-06T06:39:27;6.90;;;3.88;;
21769;SDS011;11046;49.558;8.674;2022-07-06T06:42:28;6.75;;;2.95;;
21769;SDS011;11046;49.558;8.674;2022-07-06T06:45:29;5.40;;;2.92;;
21769;SDS011;11046;49.558;8.674;2022-07-06T06:48:29;5.13;;;3.08;;
21769;SDS011;11046;49.558;8.674;2022-07-06T06:51:32;4.43;;;3.17;;
21769;SDS011;11046;49.558;8.674;2022-07-06T06:54:33;5.57;;;2.65;;
21769;SDS011;11046;49.558;8.674;2022-07-06T06:57:34;6.25;;;2.70;;
21769;SDS011;11046;49.558;8.674;2022-07-06T07:00:35;5.05;;;2.60;;
21769;SDS011;11046;49.558;8.674;2022-07-06T07:03:35;5.18;;;2.70;;
21769;SDS011;11046;49.558;8.674;2022-07-06T07:06:36;7.18;;;2.90;;
21769;SDS011;11046;49.558;8.674;2022-07-06T07:09:37;4.53;;;2.70;;
21769;SDS011;11046;49.558;8.674;2022-07-06T07:12:44;7.63;;;3.33;;
21769;SDS011;11046;49.558;8.674;2022-07-06T07:15:46;6.05;;;3.13;;
21769;SDS011;11046;49.558;8.674;2022-07-06T07:18:47;6.25;;;3.30;;
21769;SDS011;11046;49.558;8.674;2022-07-06T07:21:47;8.60;;;3.35;;
21769;SDS011;11046;49.558;8.674;2022-07-06T07:24:48;6.45;;;3.00;;
21769;SDS011;11046;49.558;8.674;2022-07-06T07:27:48;6.18;;;3.70;;
21769;SDS011;11046;49.558;8.674;2022-07-06T07:30:49;5.10;;;3.10;;
21769;SDS011;11046;49.558;8.674;2022-07-06T07:33:50;5.60;;;3.28;;
21769;SDS011;11046;49.558;8.674;2022-07-06T07:36:51;6.30;;;2.78;;
21769;SDS011;11046;49.558;8.674;2022-07-06T07:39:52;10.30;;;2.90;;
21769;SDS011;11046;49.558;8.674;2022-07-06T07:42:53;7.53;;;3.28;;
21769;SDS011;11046;49.558;8.674;2022-07-06T07:45:53;5.97;;;3.22;;
21769;SDS011;11046;49.558;8.674;2022-07-06T07:48:54;7.72;;;3.03;;
21769;SDS011;11046;49.558;8.674;2022-07-06T07:51:58;7.50;;;2.92;;
21769;SDS011;11046;49.558;8.674;2022-07-06T07:54:59;8.68;;;3.55;;
21769;SDS011;11046;49.558;8.674;2022-07-06T07:57:59;5.05;;;3.10;;
21769;SDS011;11046;49.558;8.674;2022-07-06T08:01:00;6.78;;;3.03;;
21769;SDS011;11046;49.558;8.674;2022-07-06T08:04:01;4.10;;;2.60;;
21769;SDS011;11046;49.558;8.674;2022-07-06T08:07:01;8.02;;;3.03;;
21769;SDS011;11046;49.558;8.674;2022-07-06T08:10:02;5.38;;;3.03;;
21769;SDS011;11046;49.558;8.674;2022-07-06T08:13:04;6.72;;;2.65;;
21769;SDS011;11046;49.558;8.674;2022-07-06T08:16:07;6.85;;;3.10;;
21769;SDS011;11046;49.558;8.674;2022-07-06T08:19:09;9.38;;;3.28;;
21769;SDS011;11046;49.558;8.674;2022-07-06T08:22:13;6.32;;;3.10;;
21769;SDS011;11046;49.558;8.674;2022-07-06T08:25:14;5.95;;;2.70;;
21769;SDS011;11046;49.558;8.674;2022-07-06T08:28:15;5.22;;;3.30;;
21769;SDS011;11046;49.558;8.674;2022-07-06T08:31:15;15.65;;;4.50;;
21769;SDS011;11046;49.558;8.674;2022-07-06T08:34:16;8.68;;;3.85;;
21769;SDS011;11046;49.558;8.674;2022-07-06T08:37:17;15.35;;;3.50;;
21769;SDS011;11046;49.558;8.674;2022-07-06T08:40:18;7.97;;;3.90;;
21769;SDS011;11046;49.558;8.674;2022-07-06T08:43:19;6.30;;;4.15;;
21769;SDS011;11046;49.558;8.674;2022-07-06T08:46:20;6.43;;;3.75;;
21769;SDS011;11046;49.558;8.674;2022-07-06T08:49:22;6.15;;;3.30;;
21769;SDS011;11046;49.558;8.674;2022-07-06T08:52:24;6.32;;;3.90;;
21769;SDS011;11046;49.558;8.674;2022-07-06T08:55:25;7.70;;;3.40;;
21769;SDS011;11046;49.558;8.674;2022-07-06T08:58:27;8.35;;;3.40;;
21769;SDS011;11046;49.558;8.674;2022-07-06T09:01:28;5.45;;;3.38;;
21769;SDS011;11046;49.558;8.674;2022-07-06T09:04:29;6.95;;;3.80;;
21769;SDS011;11046;49.558;8.674;2022-07-06T09:07:32;5.93;;;3.70;;
21769;SDS011;11046;49.558;8.674;2022-07-06T09:10:33;10.52;;;3.67;;
21769;SDS011;11046;49.558;8.674;2022-07-06T09:13:34;5.53;;;3.60;;
21769;SDS011;11046;49.558;8.674;2022-07-06T09:16:35;5.50;;;3.42;;
21769;SDS011;11046;49.558;8.674;2022-07-06T09:19:35;8.65;;;3.60;;
21769;SDS011;11046;49.558;8.674;2022-07-06T09:22:36;6.60;;;3.95;;
21769;SDS011;11046;49.558;8.674;2022-07-06T09:25:38;7.50;;;3.35;;
21769;SDS011;11046;49.558;8.674;2022-07-06T09:28:42;5.90;;;3.58;;
21769;SDS011;11046;49.558;8.674;2022-07-06T09:31:44;8.23;;;3.60;;
21769;SDS011;11046;49.558;8.674;2022-07-06T09:34:59;5.60;;;3.63;;
21769;SDS011;11046;49.558;8.674;2022-07-06T09:38:09;5.90;;;3.20;;
21769;SDS011;11046;49.558;8.674;2022-07-06T09:41:11;7.63;;;3.35;;
21769;SDS011;11046;49.558;8.674;2022-07-06T09:44:12;7.38;;;3.70;;
21769;SDS011;11046;49.558;8.674;2022-07-06T09:47:12;7.72;;;4.00;;
21769;SDS011;11046;49.558;8.674;2022-07-06T09:50:15;10.02;;;3.35;;
21769;SDS011;11046;49.558;8.674;2022-07-06T09:53:17;6.45;;;2.75;;
21769;SDS011;11046;49.558;8.674;2022-07-06T09:56:18;7.82;;;4.05;;
21769;SDS011;11046;49.558;8.674;2022-07-06T09:59:19;6.90;;;3.60;;
21769;SDS011;11046;49.558;8.674;2022-07-06T10:02:24;4.88;;;3.35;;
21769;SDS011;11046;49.558;8.674;2022-07-06T10:05:27;6.32;;;2.97;;
21769;SDS011;11046;49.558;8.674;2022-07-06T10:08:29;8.35;;;3.30;;
21769;SDS011;11046;49.558;8.674;2022-07-06T10:11:54;6.88;;;3.15;;
21769;SDS011;11046;49.558;8.674;2022-07-06T10:14:54;6.38;;;3.17;;
21769;SDS011;11046;49.558;8.674;2022-07-06T10:17:55;5.60;;;2.67;;
21769;SDS011;11046;49.558;8.674;2022-07-06T10:20:56;5.32;;;2.40;;
21769;SDS011;11046;49.558;8.674;2022-07-06T10:23:58;5.07;;;2.30;;
21769;SDS011;11046;49.558;8.674;2022-07-06T10:27:00;6.43;;;3.80;;
21769;SDS011;11046;49.558;8.674;2022-07-06T10:30:02;4.90;;;2.58;;
21769;SDS011;11046;49.558;8.674;2022-07-06T10:33:03;3.95;;;2.60;;
21769;SDS011;11046;49.558;8.674;2022-07-06T10:36:04;3.35;;;2.20;;
21769;SDS011;11046;49.558;8.674;2022-07-06T10:39:05;4.97;;;2.63;;
21769;SDS011;11046;49.558;8.674;2022-07-06T10:42:42;4.28;;;2.58;;
21769;SDS011;11046;49.558;8.674;2022-07-06T10:48:48;8.68;;;2.22;;
21769;SDS011;11046;49.558;8.674;2022-07-06T10:51:50;5.10;;;2.47;;
21769;SDS011;11046;49.558;8.674;2022-07-06T10:54:51;6.97;;;2.30;;
21769;SDS011;11046;49.558;8.674;2022-07-06T10:57:56;6.40;;;2.20;;
21769;SDS011;11046;49.558;8.674;2022-07-06T11:00:57;7.20;;;2.20;;
21769;SDS011;11046;49.558;8.674;2022-07-06T11:07:11;4.25;;;2.30;;
21769;SDS011;11046;49.558;8.674;2022-07-06T11:10:19;2.70;;;1.98;;
21769;SDS011;11046;49.558;8.674;2022-07-06T11:13:29;3.78;;;2.00;;
21769;SDS011;11046;49.558;8.674;2022-07-06T11:16:30;3.50;;;2.05;;
21769;SDS011;11046;49.558;8.674;2022-07-06T11:19:37;5.68;;;1.92;;
21769;SDS011;11046;49.558;8.674;2022-07-06T11:22:47;4.47;;;2.13;;
21769;SDS011;11046;49.558;8.674;2022-07-06T11:25:49;3.95;;;1.60;;
21769;SDS011;11046;49.558;8.674;2022-07-06T11:28:50;7.03;;;1.73;;
21769;SDS011;11046;49.558;8.674;2022-07-06T11:31:57;3.13;;;1.58;;
21769;SDS011;11046;49.558;8.674;2022-07-06T11:35:00;3.70;;;1.75;;
21769;SDS011;11046;49.558;8.674;2022-07-06T11:38:18;3.10;;;1.70;;
21769;SDS011;11046;49.558;8.674;2022-07-06T11:41:25;2.83;;;1.58;;
21769;SDS011;11046;49.558;8.674;2022-07-06T11:44:26;2.40;;;1.25;;
21769;SDS011;11046;49.558;8.674;2022-07-06T11:47:30;3.88;;;1.50;;
21769;SDS011;11046;49.558;8.674;2022-07-06T11:50:31;5.30;;;1.80;;
21769;SDS011;11046;49.558;8.674;2022-07-06T11:53:32;3.58;;;1.40;;
21769;SDS011;11046;49.558;8.674;2022-07-06T11:56:32;10.70;;;1.58;;
21769;SDS011;11046;49.558;8.674;2022-07-06T11:59:36;6.57;;;1.40;;
21769;SDS011;11046;49.558;8.674;2022-07-06T12:02:37;2.53;;;1.30;;
21769;SDS011;11046;49.558;8.674;2022-07-06T12:05:39;1.63;;;1.20;;
21769;SDS011;11046;49.558;8.674;2022-07-06T12:08:41;2.83;;;1.25;;
21769;SDS011;11046;49.558;8.674;2022-07-06T12:11:44;3.42;;;1.20;;
21769;SDS011;11046;49.558;8.674;2022-07-06T12:14:48;1.58;;;1.17;;
21769;SDS011;11046;49.558;8.674;2022-07-06T12:17:52;2.10;;;1.40;;
21769;SDS011;11046;49.558;8.674;2022-07-06T12:20:53;1.75;;;1.45;;
21769;SDS011;11046;49.558;8.674;2022-07-06T12:23:55;2.33;;;1.40;;
21769;SDS011;11046;49.558;8.674;2022-07-06T12:26:56;4.03;;;1.30;;
21769;SDS011;11046;49.558;8.674;2022-07-06T12:30:07;3.95;;;1.73;;
21769;SDS011;11046;49.558;8.674;2022-07-06T12:33:15;3.20;;;1.60;;
21769;SDS011;11046;49.558;8.674;2022-07-06T12:36:18;2.03;;;1.67;;
21769;SDS011;11046;49.558;8.674;2022-07-06T12:39:20;7.30;;;1.90;;
21769;SDS011;11046;49.558;8.674;2022-07-06T12:42:28;4.63;;;1.80;;
21769;SDS011;11046;49.558;8.674;2022-07-06T12:45:29;1.75;;;1.55;;
21769;SDS011;11046;49.558;8.674;2022-07-06T12:48:30;6.95;;;1.98;;
21769;SDS011;11046;49.558;8.674;2022-07-06T12:51:47;5.38;;;2.10;;
21769;SDS011;11046;49.558;8.674;2022-07-06T12:54:49;6.63;;;2.10;;
21769;SDS011;11046;49.558;8.674;2022-07-06T12:57:51;3.15;;;2.13;;
21769;SDS011;11046;49.558;8.674;2022-07-06T13:00:51;3.85;;;2.00;;
21769;SDS011;11046;49.558;8.674;2022-07-06T13:03:56;4.20;;;2.00;;
21769;SDS011;11046;49.558;8.674;2022-07-06T13:06:58;6.07;;;2.10;;
21769;SDS011;11046;49.558;8.674;2022-07-06T13:10:00;2.97;;;2.10;;
21769;SDS011;11046;49.558;8.674;2022-07-06T13:13:01;7.78;;;2.50;;
21769;SDS011;11046;49.558;8.674;2022-07-06T13:16:03;8.10;;;2.17;;
21769;SDS011;11046;49.558;8.674;2022-07-06T13:19:03;5.00;;;2.10;;
21769;SDS011;11046;49.558;8.674;2022-07-06T13:22:04;3.13;;;2.35;;
21769;SDS011;11046;49.558;8.674;2022-07-06T13:25:05;5.10;;;2.58;;
21769;SDS011;11046;49.558;8.674;2022-07-06T13:28:06;4.97;;;2.10;;
21769;SDS011;11046;49.558;8.674;2022-07-06T13:31:07;3.60;;;2.28;;
21769;SDS011;11046;49.558;8.674;2022-07-06T13:34:07;4.50;;;2.15;;
21769;SDS011;11046;49.558;8.674;2022-07-06T13:37:08;4.43;;;2.10;;
21769;SDS011;11046;49.558;8.674;2022-07-06T13:40:09;3.28;;;1.80;;
21769;SDS011;11046;49.558;8.674;2022-07-06T13:43:10;2.85;;;2.00;;
21769;SDS011;11046;49.558;8.674;2022-07-06T13:46:11;2.42;;;2.05;;
21769;SDS011;11046;49.558;8.674;2022-07-06T13:49:12;3.90;;;1.80;;
21769;SDS011;11046;49.558;8.674;2022-07-06T13:52:12;4.07;;;2.05;;
21769;SDS011;11046;49.558;8.674;2022-07-06T13:55:13;3.90;;;1.80;;
21769;SDS011;11046;49.558;8.674;2022-07-06T13:58:14;5.65;;;1.60;;
21769;SDS011;11046;49.558;8.674;2022-07-06T14:01:15;4.78;;;2.20;;
21769;SDS011;11046;49.558;8.674;2022-07-06T14:04:16;2.70;;;1.90;;
21769;SDS011;11046;49.558;8.674;2022-07-06T14:07:16;4.07;;;1.65;;
21769;SDS011;11046;49.558;8.674;2022-07-06T14:10:17;2.58;;;1.30;;
21769;SDS011;11046;49.558;8.674;2022-07-06T14:13:18;3.67;;;1.58;;
21769;SDS011;11046;49.558;8.674;2022-07-06T14:16:19;3.92;;;1.30;;
21769;SDS011;11046;49.558;8.674;2022-07-06T14:19:19;2.47;;;1.55;;
21769;SDS011;11046;49.558;8.674;2022-07-06T14:22:22;2.55;;;1.30;;
21769;SDS011;11046;49.558;8.674;2022-07-06T14:25:22;3.17;;;1.30;;
21769;SDS011;11046;49.558;8.674;2022-07-06T14:28:23;3.63;;;1.50;;
21769;SDS011;11046;49.558;8.674;2022-07-06T14:31:24;3.42;;;1.38;;
21769;SDS011;11046;49.558;8.674;2022-07-06T14:34:25;1.30;;;1.20;;
21769;SDS011;11046;49.558;8.674;2022-07-06T14:37:26;5.13;;;1.40;;
21769;SDS011;11046;49.558;8.674;2022-07-06T14:40:30;4.15;;;1.40;;
21769;SDS011;11046;49.558;8.674;2022-07-06T14:43:31;1.58;;;1.10;;
21769;SDS011;11046;49.558;8.674;2022-07-06T14:46:32;8.63;;;1.30;;
21769;SDS011;11046;49.558;8.674;2022-07-06T14:49:34;3.10;;;1.70;;
21769;SDS011;11046;49.558;8.674;2022-07-06T14:52:34;1.45;;;1.30;;
21769;SDS011;11046;49.558;8.674;2022-07-06T14:55:35;1.48;;;1.38;;
21769;SDS011;11046;49.558;8.674;2022-07-06T14:58:36;3.33;;;1.45;;
21769;SDS011;11046;49.558;8.674;2022-07-06T15:01:36;3.25;;;1.50;;
21769;SDS011;11046;49.558;8.674;2022-07-06T15:04:37;4.13;;;1.40;;
21769;SDS011;11046;49.558;8.674;2022-07-06T15:07:38;3.13;;;1.52;;
21769;SDS011;11046;49.558;8.674;2022-07-06T15:10:39;6.25;;;1.75;;
21769;SDS011;11046;49.558;8.674;2022-07-06T15:13:40;4.20;;;1.30;;
21769;SDS011;11046;49.558;8.674;2022-07-06T15:16:41;3.63;;;1.30;;
21769;SDS011;11046;49.558;8.674;2022-07-06T15:19:44;3.45;;;1.48;;
21769;SDS011;11046;49.558;8.674;2022-07-06T15:22:44;4.10;;;1.50;;
21769;SDS011;11046;49.558;8.674;2022-07-06T15:25:45;2.65;;;1.42;;
21769;SDS011;11046;49.558;8.674;2022-07-06T15:28:46;4.28;;;1.50;;
21769;SDS011;11046;49.558;8.674;2022-07-06T15:31:46;5.07;;;1.60;;
21769;SDS011;11046;49.558;8.674;2022-07-06T15:34:47;3.35;;;1.40;;
21769;SDS011;11046;49.558;8.674;2022-07-06T15:37:48;4.38;;;1.42;;
21769;SDS011;11046;49.558;8.674;2022-07-06T15:40:49;5.60;;;1.27;;
21769;SDS011;11046;49.558;8.674;2022-07-06T15:43:58;3.85;;;1.13;;
21769;SDS011;11046;49.558;8.674;2022-07-06T15:47:02;3.70;;;1.42;;
21769;SDS011;11046;49.558;8.674;2022-07-06T15:50:06;2.28;;;1.20;;
21769;SDS011;11046;49.558;8.674;2022-07-06T15:53:07;1.40;;;1.30;;
21769;SDS011;11046;49.558;8.674;2022-07-06T15:56:07;5.47;;;1.20;;
21769;SDS011;11046;49.558;8.674;2022-07-06T15:59:08;2.83;;;1.40;;
21769;SDS011;11046;49.558;8.674;2022-07-06T16:02:09;4.30;;;1.23;;
21769;SDS011;11046;49.558;8.674;2022-07-06T16:05:09;4.30;;;1.35;;
21769;SDS011;11046;49.558;8.674;2022-07-06T16:08:10;6.10;;;1.27;;
21769;SDS011;11046;49.558;8.674;2022-07-06T16:11:11;1.30;;;1.20;;
21769;SDS011;11046;49.558;8.674;2022-07-06T16:14:13;2.70;;;1.67;;
21769;SDS011;11046;49.558;8.674;2022-07-06T16:17:14;6.68;;;1.70;;
21769;SDS011;11046;49.558;8.674;2022-07-06T16:20:14;5.57;;;1.55;;
21769;SDS011;11046;49.558;8.674;2022-07-06T16:23:15;2.85;;;1.50;;
21769;SDS011;11046;49.558;8.674;2022-07-06T16:26:16;4.60;;;1.50;;
21769;SDS011;11046;49.558;8.674;2022-07-06T16:29:17;4.88;;;1.77;;
21769;SDS011;11046;49.558;8.674;2022-07-06T16:32:17;5.68;;;1.77;;
21769;SDS011;11046;49.558;8.674;2022-07-06T16:35:19;4.97;;;1.55;;
21769;SDS011;11046;49.558;8.674;2022-07-06T16:38:20;2.78;;;1.75;;
21769;SDS011;11046;49.558;8.674;2022-07-06T16:41:21;7.13;;;2.17;;
21769;SDS011;11046;49.558;8.674;2022-07-06T16:44:21;6.07;;;2.08;;
21769;SDS011;11046;49.558;8.674;2022-07-06T16:47:22;5.88;;;2.55;;
21769;SDS011;11046;49.558;8.674;2022-07-06T16:50:23;2.88;;;1.63;;
21769;SDS011;11046;49.558;8.674;2022-07-06T16:53:23;7.03;;;1.95;;
21769;SDS011;11046;49.558;8.674;2022-07-06T16:56:24;2.35;;;1.70;;
21769;SDS011;11046;49.558;8.674;2022-07-06T16:59:25;4.15;;;1.67;;
21769;SDS011;11046;49.558;8.674;2022-07-06T17:02:25;3.70;;;1.73;;
21769;SDS011;11046;49.558;8.674;2022-07-06T17:05:26;4.40;;;1.55;;
21769;SDS011;11046;49.558;8.674;2022-07-06T17:08:27;2.80;;;2.00;;
21769;SDS011;11046;49.558;8.674;2022-07-06T17:11:27;3.00;;;1.60;;
21769;SDS011;11046;49.558;8.674;2022-07-06T17:14:28;3.38;;;1.63;;
21769;SDS011;11046;49.558;8.674;2022-07-06T17:17:29;2.95;;;1.30;;
21769;SDS011;11046;49.558;8.674;2022-07-06T17:20:29;3.95;;;1.90;;
21769;SDS011;11046;49.558;8.674;2022-07-06T17:23:33;5.82;;;1.90;;
21769;SDS011;11046;49.558;8.674;2022-07-06T17:26:34;5.40;;;1.63;;
21769;SDS011;11046;49.558;8.674;2022-07-06T17:29:35;2.45;;;1.60;;
21769;SDS011;11046;49.558;8.674;2022-07-06T17:32:36;5.70;;;1.50;;
21769;SDS011;11046;49.558;8.674;2022-07-06T17:35:38;3.38;;;1.52;;
21769;SDS011;11046;49.558;8.674;2022-07-06T17:38:39;4.47;;;1.90;;
21769;SDS011;11046;49.558;8.674;2022-07-06T17:41:40;3.08;;;1.25;;
21769;SDS011;11046;49.558;8.674;2022-07-06T17:44:40;3.10;;;1.42;;
21769;SDS011;11046;49.558;8.674;2022-07-06T17:47:41;1.75;;;1.50;;
21769;SDS011;11046;49.558;8.674;2022-07-06T17:50:42;4.53;;;1.73;;
21769;SDS011;11046;49.558;8.674;2022-07-06T17:53:42;3.33;;;1.83;;
21769;SDS011;11046;49.558;8.674;2022-07-06T17:56:43;4.90;;;1.90;;
21769;SDS011;11046;49.558;8.674;2022-07-06T17:59:44;3.88;;;2.00;;
21769;SDS011;11046;49.558;8.674;2022-07-06T18:02:44;4.88;;;2.22;;
21769;SDS011;11046;49.558;8.674;2022-07-06T18:05:45;3.65;;;2.10;;
21769;SDS011;11046;49.558;8.674;2022-07-06T18:08:46;5.35;;;2.50;;
21769;SDS011;11046;49.558;8.674;2022-07-06T18:11:47;4.32;;;2.10;;
21769;SDS011;11046;49.558;8.674;2022-07-06T18:14:48;3.70;;;2.25;;
21769;SDS011;11046;49.558;8.674;2022-07-06T18:17:48;8.00;;;2.83;;
21769;SDS011;11046;49.558;8.674;2022-07-06T18:20:50;5.38;;;2.90;;
21769;SDS011;11046;49.558;8.674;2022-07-06T18:23:56;8.52;;;2.88;;
21769;SDS011;11046;49.558;8.674;2022-07-06T18:26:57;10.13;;;2.70;;
21769;SDS011;11046;49.558;8.674;2022-07-06T18:29:58;5.43;;;3.13;;
21769;SDS011;11046;49.558;8.674;2022-07-06T18:32:58;6.82;;;3.00;;
21769;SDS011;11046;49.558;8.674;2022-07-06T18:35:59;7.55;;;3.10;;
21769;SDS011;11046;49.558;8.674;2022-07-06T18:39:00;9.00;;;3.40;;
21769;SDS011;11046;49.558;8.674;2022-07-06T18:42:02;7.85;;;3.80;;
21769;SDS011;11046;49.558;8.674;2022-07-06T18:45:03;4.47;;;3.20;;
21769;SDS011;11046;49.558;8.674;2022-07-06T18:48:04;4.88;;;3.25;;
21769;SDS011;11046;49.558;8.674;2022-07-06T18:51:04;9.02;;;3.08;;
21769;SDS011;11046;49.558;8.674;2022-07-06T18:54:05;8.05;;;3.22;;
21769;SDS011;11046;49.558;8.674;2022-07-06T18:57:06;9.20;;;3.50;;
21769;SDS011;11046;49.558;8.674;2022-07-06T19:00:07;5.07;;;3.40;;
21769;SDS011;11046;49.558;8.674;2022-07-06T19:03:08;6.47;;;2.90;;
21769;SDS011;11046;49.558;8.674;2022-07-06T19:06:09;4.88;;;3.17;;
21769;SDS011;11046;49.558;8.674;2022-07-06T19:09:10;7.50;;;3.80;;
21769;SDS011;11046;49.558;8.674;2022-07-06T19:12:11;7.53;;;3.22;;
21769;SDS011;11046;49.558;8.674;2022-07-06T19:15:12;5.25;;;3.42;;
21769;SDS011;11046;49.558;8.674;2022-07-06T19:18:12;5.05;;;3.50;;
21769;SDS011;11046;49.558;8.674;2022-07-06T19:21:14;3.97;;;3.28;;
21769;SDS011;11046;49.558;8.674;2022-07-06T19:24:15;5.20;;;3.60;;
21769;SDS011;11046;49.558;8.674;2022-07-06T19:27:16;4.25;;;3.38;;
21769;SDS011;11046;49.558;8.674;2022-07-06T19:30:17;5.55;;;3.25;;
21769;SDS011;11046;49.558;8.674;2022-07-06T19:33:17;6.18;;;3.30;;
21769;SDS011;11046;49.558;8.674;2022-07-06T19:36:18;3.85;;;3.40;;
21769;SDS011;11046;49.558;8.674;2022-07-06T19:39:19;4.03;;;3.63;;
21769;SDS011;11046;49.558;8.674;2022-07-06T19:42:20;5.53;;;3.28;;
21769;SDS011;11046;49.558;8.674;2022-07-06T19:45:20;6.57;;;3.47;;
21769;SDS011;11046;49.558;8.674;2022-07-06T19:48:21;5.53;;;3.83;;
21769;SDS011;11046;49.558;8.674;2022-07-06T19:51:22;7.95;;;3.50;;
21769;SDS011;11046;49.558;8.674;2022-07-06T19:54:23;7.45;;;3.75;;
21769;SDS011;11046;49.558;8.674;2022-07-06T19:57:23;8.65;;;3.92;;
21769;SDS011;11046;49.558;8.674;2022-07-06T20:00:25;4.82;;;3.50;;
21769;SDS011;11046;49.558;8.674;2022-07-06T20:03:26;8.02;;;3.92;;
21769;SDS011;11046;49.558;8.674;2022-07-06T20:06:27;7.32;;;3.97;;
21769;SDS011;11046;49.558;8.674;2022-07-06T20:09:28;8.57;;;3.80;;
21769;SDS011;11046;49.558;8.674;2022-07-06T20:12:29;5.75;;;3.70;;
21769;SDS011;11046;49.558;8.674;2022-07-06T20:15:29;4.80;;;3.95;;
21769;SDS011;11046;49.558;8.674;2022-07-06T20:18:30;5.20;;;4.18;;
21769;SDS011;11046;49.558;8.674;2022-07-06T20:21:31;5.07;;;3.83;;
21769;SDS011;11046;49.558;8.674;2022-07-06T20:24:32;5.10;;;3.83;;
21769;SDS011;11046;49.558;8.674;2022-07-06T20:27:33;5.25;;;3.92;;
21769;SDS011;11046;49.558;8.674;2022-07-06T20:30:35;6.70;;;3.83;;
21769;SDS011;11046;49.558;8.674;2022-07-06T20:33:36;4.72;;;3.92;;
21769;SDS011;11046;49.558;8.674;2022-07-06T20:36:36;6.45;;;3.60;;
21769;SDS011;11046;49.558;8.674;2022-07-06T20:39:37;4.70;;;3.47;;
21769;SDS011;11046;49.558;8.674;2022-07-06T20:42:38;4.55;;;3.72;;
21769;SDS011;11046;49.558;8.674;2022-07-06T20:45:38;5.68;;;3.63;;
21769;SDS011;11046;49.558;8.674;2022-07-06T20:48:39;7.32;;;3.80;;
21769;SDS011;11046;49.558;8.674;2022-07-06T20:51:40;4.65;;;3.72;;
21769;SDS011;11046;49.558;8.674;2022-07-06T20:54:41;4.55;;;3.95;;
21769;SDS011;11046;49.558;8.674;2022-07-06T20:57:41;10.38;;;4.15;;
21769;SDS011;11046;49.558;8.674;2022-07-06T21:00:42;6.50;;;3.67;;
21769;SDS011;11046;49.558;8.674;2022-07-06T21:03:43;7.22;;;3.78;;
21769;SDS011;11046;49.558;8.674;2022-07-06T21:06:43;7.20;;;3.30;;
21769;SDS011;11046;49.558;8.674;2022-07-06T21:09:44;6.80;;;3.97;;
21769;SDS011;11046;49.558;8.674;2022-07-06T21:12:45;12.52;;;4.30;;
21769;SDS011;11046;49.558;8.674;2022-07-06T21:15:46;8.02;;;3.80;;
21769;SDS011;11046;49.558;8.674;2022-07-06T21:18:46;7.97;;;3.95;;
21769;SDS011;11046;49.558;8.674;2022-07-06T21:21:47;6.68;;;4.03;;
21769;SDS011;11046;49.558;8.674;2022-07-06T21:24:48;6.68;;;3.78;;
21769;SDS011;11046;49.558;8.674;2022-07-06T21:27:48;7.82;;;3.90;;
21769;SDS011;11046;49.558;8.674;2022-07-06T21:30:49;6.00;;;4.22;;
21769;SDS011;11046;49.558;8.674;2022-07-06T21:33:50;9.45;;;3.92;;
21769;SDS011;11046;49.558;8.674;2022-07-06T21:36:50;10.13;;;4.07;;
21769;SDS011;11046;49.558;8.674;2022-07-06T21:39:51;6.38;;;4.07;;
21769;SDS011;11046;49.558;8.674;2022-07-06T21:42:52;8.50;;;3.70;;
21769;SDS011;11046;49.558;8.674;2022-07-06T21:45:53;6.93;;;3.78;;
21769;SDS011;11046;49.558;8.674;2022-07-06T21:48:54;5.03;;;4.00;;
21769;SDS011;11046;49.558;8.674;2022-07-06T21:51:54;10.18;;;4.50;;
21769;SDS011;11046;49.558;8.674;2022-07-06T21:54:55;5.90;;;4.15;;
21769;SDS011;11046;49.558;8.674;2022-07-06T21:57:56;6.65;;;4.20;;
21769;SDS011;11046;49.558;8.674;2022-07-06T22:00:56;6.03;;;4.32;;
21769;SDS011;11046;49.558;8.674;2022-07-06T22:03:57;6.72;;;4.32;;
21769;SDS011;11046;49.558;8.674;2022-07-06T22:06:58;7.68;;;4.55;;
21769;SDS011;11046;49.558;8.674;2022-07-06T22:09:58;8.82;;;4.63;;
21769;SDS011;11046;49.558;8.674;2022-07-06T22:13:00;6.85;;;4.43;;
21769;SDS011;11046;49.558;8.674;2022-07-06T22:16:01;6.40;;;4.07;;
21769;SDS011;11046;49.558;8.674;2022-07-06T22:19:02;14.52;;;4.82;;
21769;SDS011;11046;49.558;8.674;2022-07-06T22:22:03;9.02;;;4.60;;
21769;SDS011;11046;49.558;8.674;2022-07-06T22:25:04;6.32;;;4.68;;
21769;SDS011;11046;49.558;8.674;2022-07-06T22:28:05;8.85;;;4.63;;
21769;SDS011;11046;49.558;8.674;2022-07-06T22:31:06;6.25;;;4.63;;
21769;SDS011;11046;49.558;8.674;2022-07-06T22:34:07;7.97;;;4.50;;
21769;SDS011;11046;49.558;8.674;2022-07-06T22:37:07;6.93;;;4.60;;
21769;SDS011;11046;49.558;8.674;2022-07-06T22:40:08;7.65;;;4.60;;
21769;SDS011;11046;49.558;8.674;2022-07-06T22:43:32;7.93;;;4.63;;
21769;SDS011;11046;49.558;8.674;2022-07-06T22:46:35;7.05;;;4.30;;
21769;SDS011;11046;49.558;8.674;2022-07-06T22:49:36;6.63;;;4.10;;
21769;SDS011;11046;49.558;8.674;2022-07-06T22:52:37;9.10;;;4.20;;
21769;SDS011;11046;49.558;8.674;2022-07-06T22:55:37;7.63;;;4.45;;
21769;SDS011;11046;49.558;8.674;2022-07-06T22:58:38;5.47;;;4.20;;
21769;SDS011;11046;49.558;8.674;2022-07-06T23:01:40;6.07;;;4.30;;
21769;SDS011;11046;49.558;8.674;2022-07-06T23:04:41;8.05;;;4.63;;
21769;SDS011;11046;49.558;8.674;2022-07-06T23:07:41;10.82;;;4.20;;
21769;SDS011;11046;49.558;8.674;2022-07-06T23:10:42;6.82;;;4.65;;
21769;SDS011;11046;49.558;8.674;2022-07-06T23:13:43;10.18;;;5.07;;
21769;SDS011;11046;49.558;8.674;2022-07-06T23:16:44;9.90;;;4.75;;
21769;SDS011;11046;49.558;8.674;2022-07-06T23:19:45;6.88;;;4.50;;
21769;SDS011;11046;49.558;8.674;2022-07-06T23:22:45;5.93;;;4.40;;
21769;SDS011;11046;49.558;8.674;2022-07-06T23:25:46;6.15;;;4.65;;
21769;SDS011;11046;49.558;8.674;2022-07-06T23:28:47;7.32;;;5.05;;
21769;SDS011;11046;49.558;8.674;2022-07-06T23:31:47;5.55;;;4.45;;
21769;SDS011;11046;49.558;8.674;2022-07-06T23:34:48;4.97;;;4.38;;
21769;SDS011;11046;49.558;8.674;2022-07-06T23:37:49;7.60;;;4.45;;
21769;SDS011;11046;49.558;8.674;2022-07-06T23:40:49;5.45;;;4.50;;
21769;SDS011;11046;49.558;8.674;2022-07-06T23:43:50;5.18;;;4.28;;
21769;SDS011;11046;49.558;8.674;2022-07-06T23:46:51;6.30;;;4.43;;
21769;SDS011;11046;49.558;8.674;2022-07-06T23:49:51;9.70;;;4.60;;
21769;SDS011;11046;49.558;8.674;2022-07-06T23:52:52;8.23;;;4.00;;